Time;durP1;ratioP1;P1;durP2;ratioP2;P2;SDS_P1;SDS_P2;PMS_P1;PMS_P2;Temp;Humidity;BMP_temperature;BMP_pressure;BME280_temperature;BME280_humidity;BME280_pressure;Samples;Min_cycle;Max_cycle;Signal;HPM_P1;HPM_P2
2022/07/01 00:02:16;;;;;;;8.53;7.83;;;19.30;99.90;;;;;;5109392;28;20187;-71
2022/07/01 00:04:42;;;;;;;7.33;6.83;;;19.30;99.90;;;;;;5122438;27;20175;-71
2022/07/01 00:07:10;;;;;;;6.17;5.70;;;19.40;99.90;;;;;;5133071;27;20179;-74
2022/07/01 00:09:36;;;;;;;6.20;5.70;;;19.40;99.90;;;;;;5132368;27;20175;-71
2022/07/01 00:12:02;;;;;;;5.97;5.50;;;19.50;99.90;;;;;;5133625;27;20918;-71
2022/07/01 00:14:27;;;;;;;5.70;5.30;;;19.50;99.90;;;;;;5131091;27;20179;-71
2022/07/01 00:16:53;;;;;;;5.60;5.20;;;19.50;99.90;;;;;;5131862;27;20671;-71
2022/07/01 00:19:19;;;;;;;5.70;5.20;;;19.40;99.90;;;;;;5131314;27;20271;-71
2022/07/01 00:21:45;;;;;;;6.27;5.77;;;19.40;99.90;;;;;;5132010;27;20222;-71
2022/07/01 00:24:10;;;;;;;6.23;5.73;;;19.50;99.90;;;;;;5130748;27;20655;-71
2022/07/01 00:26:37;;;;;;;6.13;5.73;;;19.50;99.90;;;;;;5132059;27;20545;-71
2022/07/01 00:29:03;;;;;;;6.07;5.63;;;19.40;99.90;;;;;;5128163;27;20464;-71
2022/07/01 00:31:29;;;;;;;5.20;4.80;;;19.40;99.90;;;;;;5109174;27;20182;-71
2022/07/01 00:33:54;;;;;;;4.97;4.67;;;19.50;99.90;;;;;;5112320;28;20178;-71
2022/07/01 00:36:21;;;;;;;5.20;4.90;;;19.50;99.90;;;;;;5132748;27;20173;-70
2022/07/01 00:38:46;;;;;;;6.03;5.53;;;19.50;99.90;;;;;;5133324;27;20257;-71
2022/07/01 00:41:12;;;;;;;4.97;4.60;;;19.50;99.90;;;;;;5130077;28;20552;-71
2022/07/01 00:43:39;;;;;;;4.70;4.40;;;19.40;99.90;;;;;;5132995;28;20171;-71
2022/07/01 00:46:05;;;;;;;5.23;4.83;;;19.40;99.90;;;;;;5127819;28;20206;-71
2022/07/01 00:48:36;;;;;;;5.17;4.87;;;19.40;99.90;;;;;;5131054;28;20470;-70
2022/07/01 00:51:02;;;;;;;4.67;4.37;;;19.40;99.90;;;;;;5128687;28;20456;-70
2022/07/01 00:53:29;;;;;;;5.20;4.80;;;19.40;99.90;;;;;;5133578;27;21040;-71
2022/07/01 00:55:55;;;;;;;4.50;4.20;;;19.40;99.90;;;;;;5113192;27;20738;-71
2022/07/01 00:58:21;;;;;;;4.60;4.20;;;19.40;99.90;;;;;;5120519;27;20416;-71
2022/07/01 01:00:47;;;;;;;6.23;5.73;;;19.30;99.90;;;;;;5125235;27;20466;-71
2022/07/01 01:03:13;;;;;;;6.43;5.50;;;19.30;99.90;;;;;;5120992;27;20528;-71
2022/07/01 01:05:40;;;;;;;7.20;6.60;;;19.30;99.90;;;;;;5119598;27;20572;-71
2022/07/01 01:08:08;;;;;;;5.90;5.50;;;19.30;99.90;;;;;;5135785;27;20175;-71
2022/07/01 01:10:36;;;;;;;6.37;5.87;;;19.30;99.90;;;;;;5134705;27;20920;-70
2022/07/01 01:13:03;;;;;;;7.47;6.87;;;19.40;99.90;;;;;;5135728;27;20420;-71
2022/07/01 01:15:32;;;;;;;5.70;5.30;;;19.40;99.90;;;;;;5133741;27;20921;-71
2022/07/01 01:17:58;;;;;;;5.90;5.40;;;19.40;99.90;;;;;;5135656;27;20439;-71
2022/07/01 01:20:24;;;;;;;6.30;5.80;;;19.40;99.90;;;;;;5132190;27;20456;-71
2022/07/01 01:22:50;;;;;;;6.00;5.50;;;19.40;99.90;;;;;;5128235;27;20508;-71
2022/07/01 01:25:16;;;;;;;5.43;5.03;;;19.40;99.90;;;;;;5130356;27;20652;-71
2022/07/01 01:27:42;;;;;;;6.37;5.87;;;19.40;99.90;;;;;;5132693;27;20187;-71
2022/07/01 01:30:11;;;;;;;6.47;5.97;;;19.40;99.90;;;;;;5122061;27;20769;-71
2022/07/01 01:32:37;;;;;;;6.50;5.90;;;19.30;99.90;;;;;;5114989;28;20429;-70
2022/07/01 01:35:04;;;;;;;7.33;6.73;;;19.40;99.90;;;;;;5120109;27;20432;-71
2022/07/01 01:37:30;;;;;;;7.90;7.30;;;19.30;99.90;;;;;;5135510;27;21250;-71
2022/07/01 01:39:55;;;;;;;8.60;7.80;;;19.30;99.90;;;;;;5136436;27;20405;-70
2022/07/01 01:42:21;;;;;;;8.77;7.97;;;19.30;99.90;;;;;;5135624;27;20174;-71
2022/07/01 01:44:47;;;;;;;8.47;7.67;;;19.20;99.90;;;;;;5136517;27;20257;-70
2022/07/01 01:47:13;;;;;;;8.83;8.03;;;19.20;99.90;;;;;;5135778;27;20506;-75
2022/07/01 01:49:39;;;;;;;7.80;7.20;;;19.20;99.90;;;;;;5136187;27;20442;-71
2022/07/01 01:52:06;;;;;;;9.13;8.40;;;19.20;99.90;;;;;;5136252;27;20197;-71
2022/07/01 01:54:32;;;;;;;9.93;9.03;;;19.30;99.90;;;;;;5096966;27;20932;-71
2022/07/01 01:56:58;;;;;;;10.50;9.50;;;19.20;99.90;;;;;;5136193;27;20503;-70
2022/07/01 01:59:24;;;;;;;9.23;8.43;;;19.20;99.90;;;;;;5128820;27;20508;-71
2022/07/01 02:01:50;;;;;;;9.27;8.47;;;19.20;99.90;;;;;;5111444;28;20215;-71
2022/07/01 02:04:15;;;;;;;9.70;8.90;;;19.10;99.90;;;;;;5110496;27;20440;-74
2022/07/01 02:06:41;;;;;;;9.43;8.63;;;19.10;99.90;;;;;;5120587;27;20186;-71
2022/07/01 02:09:08;;;;;;;8.87;8.07;;;19.10;99.90;;;;;;5082827;27;20179;-71
2022/07/01 02:11:35;;;;;;;8.90;8.03;;;19.10;99.90;;;;;;5135124;27;20419;-71
2022/07/01 02:14:01;;;;;;;8.20;7.60;;;19.10;99.90;;;;;;5136135;27;20461;-70
2022/07/01 02:16:27;;;;;;;8.00;7.20;;;19.10;99.90;;;;;;5135006;27;20464;-71
2022/07/01 02:18:53;;;;;;;7.90;7.10;;;19.00;99.90;;;;;;5132507;27;20900;-71
2022/07/01 02:21:18;;;;;;;7.73;7.07;;;19.00;99.90;;;;;;5127843;27;20519;-71
2022/07/01 02:23:44;;;;;;;7.63;7.03;;;19.00;99.90;;;;;;5133960;27;20470;-71
2022/07/01 02:26:10;;;;;;;8.47;6.67;;;19.00;99.90;;;;;;5134417;27;20183;-71
2022/07/01 02:28:36;;;;;;;6.73;6.20;;;19.00;99.90;;;;;;5132354;27;20203;-72
2022/07/01 02:31:02;;;;;;;7.67;7.07;;;19.00;99.90;;;;;;5124632;27;20632;-71
2022/07/01 02:33:28;;;;;;;7.87;7.27;;;19.00;99.90;;;;;;5134041;27;20198;-70
2022/07/01 02:35:54;;;;;;;7.43;6.83;;;18.90;99.90;;;;;;5135454;27;20477;-71
2022/07/01 02:38:20;;;;;;;6.57;6.13;;;18.90;99.90;;;;;;5134596;27;20872;-71
2022/07/01 02:40:46;;;;;;;6.70;6.20;;;18.80;99.90;;;;;;5135308;27;20297;-70
2022/07/01 02:43:12;;;;;;;6.43;6.03;;;18.80;99.90;;;;;;5134197;27;20175;-71
2022/07/01 02:45:38;;;;;;;9.20;6.43;;;18.80;99.90;;;;;;5134205;27;20164;-71
2022/07/01 02:48:04;;;;;;;7.53;6.93;;;18.80;99.90;;;;;;5133484;27;20579;-71
2022/07/01 02:50:30;;;;;;;5.83;5.33;;;18.80;99.90;;;;;;5119270;27;20813;-71
2022/07/01 02:52:56;;;;;;;5.93;5.53;;;18.80;99.90;;;;;;5114559;28;20410;-71
2022/07/01 02:55:21;;;;;;;6.10;5.60;;;18.80;99.90;;;;;;5113718;28;20619;-71
2022/07/01 02:57:51;;;;;;;6.23;5.73;;;18.90;99.90;;;;;;5114706;28;20176;-71
2022/07/01 03:00:19;;;;;;;5.50;5.10;;;18.80;99.90;;;;;;5118033;27;20180;-75
2022/07/01 03:02:45;;;;;;;6.20;5.60;;;18.80;99.90;;;;;;5134630;27;20423;-71
2022/07/01 03:05:11;;;;;;;5.80;5.30;;;18.90;99.90;;;;;;5134652;27;20750;-71
2022/07/01 03:07:38;;;;;;;7.77;5.30;;;18.90;99.90;;;;;;5134053;27;20413;-72
2022/07/01 03:10:05;;;;;;;5.10;4.67;;;18.90;99.90;;;;;;5132651;27;21008;-72
2022/07/01 03:12:34;;;;;;;5.77;5.30;;;18.90;99.90;;;;;;5133910;27;20401;-72
2022/07/01 03:15:06;;;;;;;6.33;5.73;;;18.90;99.90;;;;;;5120865;27;20762;-72
2022/07/01 03:17:34;;;;;;;5.30;4.90;;;18.90;99.90;;;;;;5112957;28;20445;-71
2022/07/01 03:20:00;;;;;;;5.30;4.80;;;18.90;99.90;;;;;;5120045;27;20534;-73
2022/07/01 03:22:28;;;;;;;5.20;4.80;;;18.90;99.90;;;;;;5133368;27;20974;-72
2022/07/01 03:24:54;;;;;;;4.90;4.50;;;19.00;99.90;;;;;;5081096;27;20785;-71
2022/07/01 03:27:21;;;;;;;5.63;4.80;;;19.00;99.90;;;;;;5133719;27;20409;-75
2022/07/01 03:29:47;;;;;;;5.83;5.33;;;19.00;99.90;;;;;;5130942;27;20425;-72
2022/07/01 03:32:13;;;;;;;4.97;4.67;;;19.00;99.90;;;;;;5132902;27;20900;-72
2022/07/01 03:34:41;;;;;;;6.13;5.57;;;19.00;99.90;;;;;;5133513;27;20404;-73
2022/07/01 03:37:08;;;;;;;6.33;5.83;;;19.00;99.90;;;;;;5131555;27;20507;-72
2022/07/01 03:39:35;;;;;;;9.10;8.47;;;19.00;99.90;;;;;;5133367;27;20481;-72
2022/07/01 03:42:01;;;;;;;6.43;5.90;;;19.00;99.90;;;;;;5123950;27;20468;-72
2022/07/01 03:44:27;;;;;;;8.30;7.60;;;19.00;99.90;;;;;;5123362;27;20429;-72
2022/07/01 03:46:53;;;;;;;7.37;6.60;;;18.90;99.90;;;;;;5133910;27;20453;-72
2022/07/01 03:49:19;;;;;;;8.10;7.50;;;19.00;99.90;;;;;;5127805;27;20190;-76
2022/07/01 03:51:45;;;;;;;7.27;6.60;;;18.90;99.90;;;;;;5113087;28;20397;-72
2022/07/01 03:54:29;;;;;;;7.60;7.00;;;18.90;99.90;;;;;;5113119;28;20178;-72
2022/07/01 03:56:59;;;;;;;12.70;11.40;;;18.90;99.90;;;;;;5112107;27;20440;-74
2022/07/01 03:59:26;;;;;;;8.43;7.73;;;18.90;99.90;;;;;;5124616;27;20419;-79
2022/07/01 04:01:53;;;;;;;7.90;7.30;;;18.90;99.90;;;;;;5122122;27;20507;-80
2022/07/01 04:04:18;;;;;;;7.97;7.37;;;18.90;99.90;;;;;;5130754;27;20460;-75
2022/07/01 04:06:45;;;;;;;8.63;7.93;;;18.90;99.90;;;;;;5132420;27;20468;-80
2022/07/01 04:09:12;;;;;;;8.10;7.40;;;18.90;99.90;;;;;;5123057;27;20599;-80
2022/07/01 04:11:38;;;;;;;9.13;8.43;;;18.90;99.90;;;;;;5098711;27;20797;-81
2022/07/01 04:14:04;;;;;;;8.20;7.60;;;18.90;99.90;;;;;;5133918;27;20423;-80
2022/07/01 04:16:30;;;;;;;6.50;6.00;;;18.90;99.90;;;;;;5111931;27;20426;-79
2022/07/01 04:18:56;;;;;;;9.17;8.47;;;18.90;99.90;;;;;;5115113;27;20576;-80
2022/07/01 04:24:07;;;;;;;7.30;6.70;;;18.80;99.90;;;;;;5124862;27;20189;-80
2022/07/01 04:26:33;;;;;;;7.30;6.13;;;18.80;99.90;;;;;;5126149;27;20428;-79
2022/07/01 04:28:59;;;;;;;7.37;6.10;;;18.80;99.90;;;;;;5131245;27;20436;-80
2022/07/01 04:31:24;;;;;;;9.03;8.00;;;18.80;99.90;;;;;;5130038;27;20448;-75
2022/07/01 04:33:50;;;;;;;7.50;6.90;;;18.80;99.90;;;;;;5132215;27;20185;-80
2022/07/01 04:36:16;;;;;;;7.10;6.57;;;18.70;99.90;;;;;;5131055;27;20175;-80
2022/07/01 04:38:42;;;;;;;9.23;8.53;;;18.70;99.90;;;;;;5129412;27;20436;-80
2022/07/01 04:43:52;;;;;;;8.80;7.90;;;18.70;99.90;;;;;;5133528;27;20185;-80
2022/07/01 04:46:18;;;;;;;8.30;7.60;;;18.70;99.90;;;;;;5132592;28;20424;-80
2022/07/01 04:48:43;;;;;;;7.97;7.20;;;18.70;99.90;;;;;;5130822;28;20179;-80
2022/07/01 04:51:09;;;;;;;7.90;7.30;;;18.70;99.90;;;;;;5121848;28;20522;-80
2022/07/01 04:53:35;;;;;;;6.87;6.17;;;18.70;99.90;;;;;;5121509;28;20187;-80
2022/07/01 04:56:01;;;;;;;6.97;6.20;;;18.70;99.90;;;;;;5126158;28;20672;-80
2022/07/01 04:58:26;;;;;;;7.20;6.60;;;18.70;99.90;;;;;;5104753;28;20593;-78
2022/07/01 05:00:53;;;;;;;9.77;9.00;;;18.70;99.90;;;;;;5099153;28;20454;-80
2022/07/01 05:03:19;;;;;;;9.17;8.47;;;18.70;99.90;;;;;;5113486;28;20235;-80
2022/07/01 05:05:44;;;;;;;7.63;6.90;;;18.80;99.90;;;;;;5132218;28;20408;-79
2022/07/01 05:08:10;;;;;;;8.20;7.50;;;18.80;99.90;;;;;;5130170;28;20434;-80
2022/07/01 05:10:36;;;;;;;7.53;6.67;;;18.80;99.90;;;;;;5101224;28;20191;-79
2022/07/01 05:13:02;;;;;;;7.23;6.60;;;18.90;99.90;;;;;;5132983;28;20195;-80
2022/07/01 05:15:28;;;;;;;7.40;6.70;;;18.90;99.90;;;;;;5121822;28;20449;-79
2022/07/01 05:23:23;;;;;;;7.37;6.70;;;18.90;99.90;;;;;;5126039;28;20443;-80
2022/07/01 05:25:48;;;;;;;8.50;7.70;;;18.90;99.90;;;;;;5124983;28;20428;-79
2022/07/01 05:28:14;;;;;;;7.90;7.20;;;18.90;99.90;;;;;;5112138;28;20184;-80
2022/07/01 05:30:40;;;;;;;7.70;7.10;;;18.90;99.90;;;;;;5123462;28;20190;-80
2022/07/01 05:33:06;;;;;;;10.13;9.17;;;18.90;99.90;;;;;;5132003;28;20175;-80
2022/07/01 05:35:31;;;;;;;11.70;8.87;;;19.00;99.90;;;;;;5129337;28;20226;-80
2022/07/01 05:37:58;;;;;;;9.97;8.97;;;19.00;99.90;;;;;;5127185;28;20198;-80
2022/07/01 05:40:25;;;;;;;7.83;7.27;;;19.00;99.90;;;;;;5115469;27;20215;-75
2022/07/01 05:42:51;;;;;;;8.70;7.50;;;19.10;99.90;;;;;;5121949;27;20420;-80
2022/07/01 05:45:17;;;;;;;8.83;8.13;;;19.10;99.90;;;;;;5119567;27;20436;-78
2022/07/01 05:47:43;;;;;;;8.83;8.23;;;19.00;99.90;;;;;;5129752;27;20817;-78
2022/07/01 05:50:10;;;;;;;8.00;7.20;;;19.00;99.90;;;;;;5105720;27;20482;-79
2022/07/01 05:52:35;;;;;;;7.90;7.23;;;19.00;99.90;;;;;;5111363;28;20438;-79
2022/07/01 05:55:01;;;;;;;7.63;6.90;;;19.10;99.90;;;;;;5115456;28;20454;-79
2022/07/01 05:57:27;;;;;;;8.50;7.90;;;19.10;99.90;;;;;;5115238;28;20178;-74
2022/07/01 05:59:52;;;;;;;9.43;8.83;;;19.10;99.90;;;;;;5114168;28;20220;-79
2022/07/01 06:02:18;;;;;;;9.30;8.17;;;19.10;99.90;;;;;;5115530;28;20673;-80
2022/07/01 06:04:44;;;;;;;9.70;8.90;;;19.10;99.90;;;;;;5115071;27;20249;-79
2022/07/01 06:07:10;;;;;;;11.10;9.90;;;19.10;99.90;;;;;;5115493;28;20207;-79
2022/07/01 06:09:36;;;;;;;10.07;9.07;;;19.10;99.90;;;;;;5115013;28;20563;-79
2022/07/01 06:12:03;;;;;;;9.43;8.73;;;19.00;99.90;;;;;;5115322;28;20413;-80
2022/07/01 06:14:29;;;;;;;11.53;10.73;;;19.00;99.90;;;;;;5114990;28;20413;-73
2022/07/01 06:16:55;;;;;;;11.27;9.07;;;19.00;99.90;;;;;;5113977;28;20764;-79
2022/07/01 06:19:20;;;;;;;9.60;8.70;;;19.10;99.90;;;;;;5131080;27;20211;-77
2022/07/01 06:21:46;;;;;;;9.10;8.37;;;19.10;99.90;;;;;;5112512;27;20234;-76
2022/07/01 06:24:12;;;;;;;8.73;7.93;;;19.30;99.90;;;;;;5126036;27;20183;-76
2022/07/01 06:26:38;;;;;;;8.23;7.57;;;19.30;99.90;;;;;;5112955;28;20931;-76
2022/07/01 06:29:04;;;;;;;10.83;9.73;;;19.30;99.90;;;;;;5126422;27;20433;-76
2022/07/01 06:31:29;;;;;;;10.40;9.50;;;19.20;99.90;;;;;;5121404;27;20183;-75
2022/07/01 06:33:55;;;;;;;8.33;7.63;;;19.10;99.90;;;;;;5128882;27;20773;-75
2022/07/01 06:36:21;;;;;;;9.30;8.40;;;19.10;99.90;;;;;;5109705;27;20183;-76
2022/07/01 06:38:47;;;;;;;7.23;6.60;;;19.10;99.90;;;;;;5129794;27;20187;-76
2022/07/01 06:41:28;;;;;;;8.77;8.17;;;19.00;99.90;;;;;;5117096;27;20199;-76
2022/07/01 06:43:58;;;;;;;8.30;7.60;;;19.00;99.90;;;;;;5125929;27;20193;-80
2022/07/01 06:46:24;;;;;;;8.47;7.87;;;19.00;99.90;;;;;;5134175;27;20485;-81
2022/07/01 06:48:50;;;;;;;9.03;8.33;;;18.90;99.90;;;;;;5124210;27;20988;-76
2022/07/01 06:51:16;;;;;;;8.70;7.90;;;18.90;99.90;;;;;;5113753;27;20461;-75
2022/07/01 06:53:44;;;;;;;7.57;7.07;;;18.90;99.90;;;;;;5113910;28;20519;-76
2022/07/01 06:56:11;;;;;;;8.00;7.30;;;18.90;99.90;;;;;;5114386;28;20761;-76
2022/07/01 06:58:37;;;;;;;7.77;7.13;;;18.90;99.90;;;;;;5112861;28;20420;-75
2022/07/01 07:01:03;;;;;;;8.00;7.43;;;18.90;99.90;;;;;;5114729;28;20483;-75
2022/07/01 07:03:29;;;;;;;6.20;5.70;;;18.90;99.90;;;;;;5113648;28;20417;-75
2022/07/01 07:05:55;;;;;;;7.10;6.47;;;18.90;99.90;;;;;;5140541;27;20429;-75
2022/07/01 07:08:21;;;;;;;5.93;5.33;;;19.00;99.90;;;;;;5139891;27;20405;-75
2022/07/01 07:10:46;;;;;;;7.20;6.60;;;18.90;99.90;;;;;;5125944;27;20206;-75
2022/07/01 07:13:12;;;;;;;7.33;6.63;;;18.90;99.90;;;;;;5115209;27;20176;-76
2022/07/01 07:15:41;;;;;;;6.40;5.90;;;18.90;99.90;;;;;;5111015;27;20176;-75
2022/07/01 07:18:07;;;;;;;5.83;5.43;;;19.00;99.90;;;;;;5133214;27;20549;-75
2022/07/01 07:20:34;;;;;;;5.90;5.50;;;19.10;99.90;;;;;;5116559;27;20465;-73
2022/07/01 07:22:59;;;;;;;5.70;5.20;;;19.00;99.90;;;;;;5131757;27;20557;-76
2022/07/01 07:25:25;;;;;;;6.73;5.27;;;19.00;99.90;;;;;;5133021;27;20436;-76
2022/07/01 07:27:51;;;;;;;5.80;5.30;;;19.00;99.90;;;;;;5132441;27;20197;-76
2022/07/01 07:30:18;;;;;;;8.73;5.67;;;19.10;99.90;;;;;;5134515;27;20186;-76
2022/07/01 07:32:44;;;;;;;6.73;6.23;;;19.10;99.90;;;;;;5133600;27;20761;-75
2022/07/01 07:35:10;;;;;;;5.73;4.43;;;19.10;99.90;;;;;;5131113;27;20408;-76
2022/07/01 07:37:36;;;;;;;6.40;5.90;;;19.10;99.90;;;;;;5130939;27;20826;-75
2022/07/01 07:40:06;;;;;;;6.70;6.13;;;19.10;99.90;;;;;;5131019;27;20424;-76
2022/07/01 07:42:32;;;;;;;6.03;5.53;;;19.10;99.90;;;;;;5134036;27;20282;-76
2022/07/01 07:44:58;;;;;;;5.70;5.23;;;19.00;99.90;;;;;;5133363;27;20426;-80
2022/07/01 07:47:23;;;;;;;4.80;4.50;;;19.10;99.90;;;;;;5134149;27;20396;-76
2022/07/01 07:49:49;;;;;;;5.60;5.00;;;19.10;99.90;;;;;;5115980;27;20187;-76
2022/07/01 07:52:15;;;;;;;5.07;4.67;;;19.00;99.90;;;;;;5121144;27;20206;-75
2022/07/01 07:54:41;;;;;;;5.40;4.63;;;19.00;99.90;;;;;;5104395;28;20183;-75
2022/07/01 07:57:07;;;;;;;6.87;5.40;;;19.10;99.90;;;;;;5093042;28;20643;-76
2022/07/01 07:59:34;;;;;;;5.37;4.43;;;19.10;99.90;;;;;;5092766;28;20168;-76
2022/07/01 08:02:00;;;;;;;5.67;4.50;;;19.10;99.90;;;;;;5092021;28;20450;-76
2022/07/01 08:04:25;;;;;;;5.93;5.43;;;19.20;99.90;;;;;;5092239;28;20425;-76
2022/07/01 08:06:51;;;;;;;4.77;4.40;;;19.20;99.90;;;;;;5092104;28;20199;-75
2022/07/01 08:09:18;;;;;;;4.77;4.47;;;19.20;99.90;;;;;;5092661;28;20259;-76
2022/07/01 08:11:44;;;;;;;4.70;4.30;;;19.20;99.90;;;;;;5092052;28;20604;-76
2022/07/01 08:14:10;;;;;;;6.00;5.50;;;19.20;99.90;;;;;;5092726;28;20410;-76
2022/07/01 08:16:36;;;;;;;5.53;5.10;;;19.20;99.90;;;;;;5092300;28;20877;-76
2022/07/01 08:19:02;;;;;;;6.27;5.47;;;19.30;99.90;;;;;;5094435;28;20188;-76
2022/07/01 08:21:29;;;;;;;6.57;4.83;;;19.30;99.90;;;;;;5112883;28;20564;-76
2022/07/01 08:23:55;;;;;;;5.20;4.80;;;19.30;99.90;;;;;;5110787;28;21070;-76
2022/07/01 08:26:21;;;;;;;5.63;4.97;;;19.30;99.90;;;;;;5060052;28;20463;-75
2022/07/01 08:28:47;;;;;;;6.60;5.20;;;19.40;99.90;;;;;;5110826;28;20417;-76
2022/07/01 08:31:13;;;;;;;8.30;5.13;;;19.30;99.90;;;;;;5112861;28;20405;-76
2022/07/01 08:33:39;;;;;;;5.40;4.90;;;19.40;99.90;;;;;;5110497;28;20175;-75
2022/07/01 08:36:07;;;;;;;5.63;5.13;;;19.40;99.90;;;;;;5113054;28;20482;-76
2022/07/01 08:38:32;;;;;;;6.10;5.60;;;19.40;99.90;;;;;;5110678;28;20523;-75
2022/07/01 08:40:58;;;;;;;8.27;7.67;;;19.40;99.90;;;;;;5111882;28;21013;-75
2022/07/01 08:43:24;;;;;;;6.30;5.90;;;19.50;99.90;;;;;;5111594;28;20171;-75
2022/07/01 08:45:51;;;;;;;6.80;6.40;;;19.50;99.90;;;;;;5059291;28;20981;-74
2022/07/01 08:48:17;;;;;;;6.93;5.20;;;19.50;99.90;;;;;;5112846;28;20168;-75
2022/07/01 08:50:43;;;;;;;6.53;6.23;;;19.50;99.80;;;;;;5111861;28;20812;-75
2022/07/01 08:53:11;;;;;;;6.27;5.67;;;19.50;99.50;;;;;;5112645;28;20432;-75
2022/07/01 08:58:23;;;;;;;6.37;5.90;;;19.50;99.30;;;;;;5111539;28;20422;-75
2022/07/01 09:00:49;;;;;;;5.40;4.90;;;19.50;99.90;;;;;;5111471;28;20492;-75
2022/07/01 09:03:15;;;;;;;6.47;6.07;;;19.60;99.90;;;;;;5112579;28;20809;-76
2022/07/01 09:05:49;;;;;;;8.50;6.17;;;19.60;99.70;;;;;;5111780;28;20179;-75
2022/07/01 09:08:15;;;;;;;10.27;6.17;;;19.50;99.90;;;;;;5109372;28;20175;-75
2022/07/01 09:10:40;;;;;;;6.90;6.17;;;19.40;99.90;;;;;;5103609;28;20437;-75
2022/07/01 09:13:08;;;;;;;17.03;10.20;;;19.50;99.90;;;;;;5112682;28;20515;-75
2022/07/01 09:15:35;;;;;;;6.23;5.70;;;19.50;99.90;;;;;;5113447;28;20263;-75
2022/07/01 09:18:15;;;;;;;6.77;6.17;;;19.60;99.90;;;;;;5116500;28;20452;-75
2022/07/01 09:20:47;;;;;;;5.40;5.00;;;19.70;99.90;;;;;;5115861;28;20448;-75
2022/07/01 09:23:15;;;;;;;6.13;5.63;;;19.80;99.70;;;;;;5116653;28;20488;-76
2022/07/01 09:25:51;;;;;;;6.33;5.83;;;20.00;99.90;;;;;;5116221;28;20417;-75
2022/07/01 09:28:22;;;;;;;5.13;4.83;;;20.20;99.40;;;;;;5116658;28;20420;-76
2022/07/01 09:30:53;;;;;;;5.13;4.70;;;20.30;98.60;;;;;;5114768;28;20909;-75
2022/07/01 09:33:24;;;;;;;4.70;4.30;;;20.30;97.90;;;;;;5116661;28;20413;-75
2022/07/01 09:35:50;;;;;;;9.77;5.00;;;20.40;97.40;;;;;;5115895;28;20885;-75
2022/07/01 09:38:18;;;;;;;7.20;4.87;;;20.40;97.80;;;;;;5116472;28;20409;-75
2022/07/01 09:40:52;;;;;;;6.50;4.50;;;20.40;96.70;;;;;;5114712;28;20479;-75
2022/07/01 09:43:28;;;;;;;4.57;4.17;;;20.50;96.30;;;;;;5116444;28;20402;-75
2022/07/01 09:46:03;;;;;;;5.30;4.90;;;20.50;96.00;;;;;;5114552;28;20490;-75
2022/07/01 09:48:32;;;;;;;6.60;4.73;;;20.50;96.00;;;;;;5102383;28;20445;-75
2022/07/01 09:50:58;;;;;;;4.33;4.03;;;20.60;95.90;;;;;;5112124;28;20533;-75
2022/07/01 09:53:24;;;;;;;5.23;4.67;;;20.70;97.10;;;;;;5116023;28;20464;-75
2022/07/01 09:55:50;;;;;;;5.00;4.50;;;20.70;94.80;;;;;;5114316;28;20417;-75
2022/07/01 09:58:16;;;;;;;4.63;4.20;;;20.60;94.80;;;;;;5116492;28;20504;-75
2022/07/01 10:00:43;;;;;;;3.73;3.53;;;20.70;95.00;;;;;;5115325;28;20537;-75
2022/07/01 10:03:09;;;;;;;4.13;3.90;;;20.70;95.30;;;;;;5115642;28;20501;-76
2022/07/01 10:05:58;;;;;;;3.73;3.53;;;20.70;94.60;;;;;;5116180;28;20433;-76
2022/07/01 10:08:45;;;;;;;4.33;4.13;;;20.80;94.40;;;;;;5112634;28;20782;-75
2022/07/01 10:11:38;;;;;;;4.33;4.03;;;20.80;94.10;;;;;;5116034;28;20420;-75
2022/07/01 10:14:06;;;;;;;4.70;4.30;;;20.80;93.90;;;;;;5114413;28;20416;-75
2022/07/01 10:16:33;;;;;;;4.47;4.07;;;20.90;94.30;;;;;;5111405;28;20440;-75
2022/07/01 10:19:05;;;;;;;6.93;6.53;;;20.90;94.40;;;;;;5110297;28;20459;-79
2022/07/01 10:21:31;;;;;;;8.07;4.60;;;20.90;95.20;;;;;;5114160;28;21037;-76
2022/07/01 10:24:17;;;;;;;4.53;4.30;;;20.80;94.20;;;;;;5114624;28;20414;-76
2022/07/01 10:26:45;;;;;;;5.70;5.40;;;20.80;94.50;;;;;;5115736;28;20433;-74
2022/07/01 10:29:33;;;;;;;5.13;4.83;;;20.70;94.40;;;;;;5132256;28;20818;-76
2022/07/01 10:32:00;;;;;;;4.70;4.40;;;20.60;94.90;;;;;;5113682;28;20479;-76
2022/07/01 10:34:37;;;;;;;3.90;3.53;;;20.50;95.90;;;;;;5115147;28;20464;-76
2022/07/01 10:37:06;;;;;;;5.77;4.20;;;20.40;96.60;;;;;;5115007;28;20431;-81
2022/07/01 10:39:56;;;;;;;5.10;4.70;;;20.30;96.20;;;;;;5112511;28;20433;-75
2022/07/01 10:42:26;;;;;;;5.20;4.90;;;20.40;96.70;;;;;;5115275;28;20476;-76
2022/07/01 10:45:05;;;;;;;5.03;4.83;;;20.30;96.00;;;;;;5119106;27;20428;-78
2022/07/01 10:47:32;;;;;;;5.20;4.90;;;20.30;98.00;;;;;;5128378;27;20437;-76
2022/07/01 10:49:59;;;;;;;5.50;5.10;;;20.30;96.50;;;;;;5113114;27;20788;-76
2022/07/01 10:52:26;;;;;;;4.93;4.03;;;20.30;98.10;;;;;;5113713;28;20490;-76
2022/07/01 10:54:56;;;;;;;6.63;6.07;;;20.20;96.40;;;;;;5102503;27;20964;-71
2022/07/01 10:57:28;;;;;;;5.40;5.00;;;20.20;95.10;;;;;;5105789;27;20917;-76
2022/07/01 11:00:15;;;;;;;5.20;4.80;;;20.10;94.40;;;;;;5118500;27;20551;-74
2022/07/01 11:02:41;;;;;;;4.30;4.10;;;20.10;95.30;;;;;;5099652;28;20486;-75
2022/07/01 11:05:09;;;;;;;5.07;4.63;;;20.10;95.10;;;;;;5104090;28;20974;-65
2022/07/01 11:07:38;;;;;;;4.37;3.97;;;20.10;95.70;;;;;;5094013;28;20611;-65
2022/07/01 11:10:07;;;;;;;7.67;4.20;;;20.20;96.10;;;;;;5096761;28;20577;-66
2022/07/01 11:12:33;;;;;;;4.77;4.33;;;20.30;96.50;;;;;;5119523;27;20432;-66
2022/07/01 11:15:01;;;;;;;5.00;4.70;;;20.30;97.10;;;;;;5110783;27;20440;-66
2022/07/01 11:17:27;;;;;;;4.37;4.07;;;20.50;97.60;;;;;;5118546;27;20437;-66
2022/07/01 11:19:57;;;;;;;4.70;4.30;;;20.70;95.70;;;;;;5129469;27;20439;-66
2022/07/01 11:22:28;;;;;;;5.40;4.40;;;20.90;97.00;;;;;;5134443;27;20509;-66
2022/07/01 11:24:56;;;;;;;4.60;4.20;;;21.20;96.90;;;;;;5125403;27;20837;-66
2022/07/01 11:27:22;;;;;;;4.77;4.13;;;21.50;97.20;;;;;;5132615;27;20496;-66
2022/07/01 11:30:00;;;;;;;4.67;4.27;;;21.80;94.90;;;;;;5125265;27;20834;-66
2022/07/01 11:32:27;;;;;;;3.87;3.67;;;21.90;93.90;;;;;;5133501;27;20455;-66
2022/07/01 11:34:53;;;;;;;4.20;3.90;;;22.10;92.80;;;;;;5106367;27;20434;-66
2022/07/01 11:40:08;;;;;;;3.47;3.37;;;22.20;92.80;;;;;;5119502;27;20464;-66
2022/07/01 11:42:35;;;;;;;3.80;3.50;;;22.20;91.70;;;;;;5114821;27;20437;-67
2022/07/01 11:45:01;;;;;;;3.27;2.97;;;22.20;90.00;;;;;;5128066;27;20480;-66
2022/07/01 11:47:27;;;;;;;2.60;2.50;;;22.10;89.20;;;;;;5115414;27;20438;-66
2022/07/01 11:49:53;;;;;;;3.00;2.80;;;22.10;89.10;;;;;;5117175;27;20429;-66
2022/07/01 11:52:20;;;;;;;5.47;3.77;;;22.20;90.40;;;;;;5112039;27;20979;-67
2022/07/01 11:54:54;;;;;;;2.93;2.70;;;22.40;92.10;;;;;;5119588;27;20524;-68
2022/07/01 11:57:23;;;;;;;5.10;4.80;;;22.60;90.30;;;;;;5090492;28;20440;-69
2022/07/01 11:59:51;;;;;;;4.60;4.40;;;22.70;91.00;;;;;;5091270;27;20424;-70
2022/07/01 12:02:19;;;;;;;2.60;2.33;;;22.80;87.90;;;;;;5109729;27;20536;-69
2022/07/01 12:04:46;;;;;;;2.80;2.60;;;22.90;85.30;;;;;;5122913;27;20438;-70
2022/07/01 12:07:13;;;;;;;3.33;3.23;;;22.90;92.70;;;;;;5107238;27;20441;-70
2022/07/01 12:09:39;;;;;;;2.60;2.47;;;23.00;92.10;;;;;;5118646;27;20437;-70
2022/07/01 12:12:05;;;;;;;3.77;3.57;;;23.10;90.20;;;;;;5099120;27;20442;-68
2022/07/01 12:14:34;;;;;;;3.23;3.03;;;23.20;89.00;;;;;;5112142;27;20245;-68
2022/07/01 12:17:08;;;;;;;3.77;3.47;;;23.50;90.40;;;;;;5105801;27;20420;-67
2022/07/01 12:19:41;;;;;;;3.17;2.97;;;23.70;90.10;;;;;;5127959;27;20432;-68
2022/07/01 12:22:13;;;;;;;3.17;3.07;;;23.90;89.00;;;;;;5121058;27;20484;-68
2022/07/01 12:24:39;;;;;;;3.13;2.87;;;24.10;88.10;;;;;;5126319;27;20501;-68
2022/07/01 12:27:07;;;;;;;4.37;4.17;;;24.30;86.60;;;;;;5121928;27;20458;-69
2022/07/01 12:29:49;;;;;;;3.67;3.47;;;24.50;87.80;;;;;;5119458;27;20428;-70
2022/07/01 12:32:24;;;;;;;4.87;4.67;;;24.60;83.80;;;;;;5123728;27;20441;-68
2022/07/01 12:34:57;;;;;;;2.97;2.87;;;24.80;81.80;;;;;;5118619;27;20458;-70
2022/07/01 12:37:41;;;;;;;5.33;5.10;;;24.90;80.50;;;;;;5133062;27;20416;-68
2022/07/01 12:40:20;;;;;;;3.63;3.30;;;24.80;72.10;;;;;;5101423;28;20481;-68
2022/07/01 12:42:46;;;;;;;2.60;2.47;;;24.80;76.40;;;;;;5100610;27;20508;-69
2022/07/01 12:45:14;;;;;;;4.80;4.40;;;24.80;75.30;;;;;;5106528;28;20503;-68
2022/07/01 12:47:48;;;;;;;3.20;2.97;;;24.70;74.40;;;;;;5101915;28;20441;-69
2022/07/01 12:50:23;;;;;;;2.63;2.43;;;24.60;74.00;;;;;;5100937;28;20449;-68
2022/07/01 12:53:12;;;;;;;5.03;4.77;;;24.50;74.10;;;;;;5135400;27;20911;-68
2022/07/01 12:55:39;;;;;;;2.77;2.40;;;24.40;74.20;;;;;;5140348;27;20419;-68
2022/07/01 12:58:13;;;;;;;4.70;4.50;;;24.40;75.60;;;;;;5139237;27;20419;-68
2022/07/01 13:00:41;;;;;;;4.40;4.10;;;24.40;76.10;;;;;;5115329;28;20421;-69
2022/07/01 13:03:07;;;;;;;4.50;4.20;;;24.30;77.30;;;;;;5118872;28;20441;-69
2022/07/01 13:05:35;;;;;;;1.90;1.80;;;24.20;80.30;;;;;;5117668;28;20470;-68